createdAt,value
2022-08-20T00:02:15.689Z,100356.71
2022-08-20T00:04:44.733Z,100354.63
2022-08-20T00:07:15.709Z,100360.73
2022-08-20T00:09:44.473Z,100371.16
2022-08-20T00:12:16.143Z,100377.42
2022-08-20T00:14:43.935Z,100380.86
2022-08-20T00:17:11.732Z,100384.73
2022-08-20T00:19:39.615Z,100387.23
2022-08-20T00:22:07.702Z,100391.49
2022-08-20T00:24:35.552Z,100392.86
2022-08-20T00:27:03.606Z,100397.65
2022-08-20T00:29:31.739Z,100398.87
2022-08-20T00:31:59.667Z,100391.91
2022-08-20T00:34:28.021Z,100391.94
2022-08-20T00:36:55.897Z,100391.36
2022-08-20T00:39:23.857Z,100392.71
2022-08-20T00:41:52.197Z,100395.66
2022-08-20T00:44:22.602Z,100395.06
2022-08-20T00:46:52.295Z,100394.52
2022-08-20T00:49:28.101Z,100388.52
2022-08-20T00:52:05.980Z,100396.48
2022-08-20T00:54:59.076Z,100401.33
2022-08-20T00:57:54.769Z,100402.56
2022-08-20T01:00:34.062Z,100399.89
2022-08-20T01:03:01.891Z,100399.84
2022-08-20T01:05:30.434Z,100399.67
2022-08-20T01:07:58.676Z,100395.23
2022-08-20T01:10:29.842Z,100394.77
2022-08-20T01:12:59.667Z,100402.30
2022-08-20T01:15:31.903Z,100404.79
2022-08-20T01:18:02.399Z,100403.27
2022-08-20T01:20:43.153Z,100405.05
2022-08-20T01:23:42.015Z,100404.71
2022-08-20T01:26:23.539Z,100400.62
2022-08-20T01:28:58.859Z,100396.51
2022-08-20T01:31:30.018Z,100391.88
2022-08-20T01:34:00.216Z,100390.15
2022-08-20T01:36:34.354Z,100390.92
2022-08-20T01:39:05.633Z,100392.44
2022-08-20T01:41:51.511Z,100392.86
2022-08-20T01:44:21.255Z,100388.41
2022-08-20T01:46:51.549Z,100392.70
2022-08-20T01:49:24.843Z,100394.48
2022-08-20T01:51:57.486Z,100393.20
2022-08-20T01:54:25.972Z,100385.76
2022-08-20T01:57:06.654Z,100384.80
2022-08-20T01:59:34.546Z,100384.54
2022-08-20T02:02:02.761Z,100382.95
2022-08-20T02:04:31.379Z,100383.00
2022-08-20T02:07:02.396Z,100378.73
2022-08-20T02:09:37.653Z,100379.66
2022-08-20T02:12:08.827Z,100378.48
2022-08-20T02:14:42.376Z,100370.94
2022-08-20T02:17:11.825Z,100374.20
2022-08-20T02:19:43.961Z,100376.77
2022-08-20T02:22:38.087Z,100378.00
2022-08-20T02:25:09.111Z,100381.97
2022-08-20T02:27:39.502Z,100380.93
2022-08-20T02:30:12.136Z,100385.55
2022-08-20T02:32:57.793Z,100383.40
2022-08-20T02:35:26.671Z,100381.78
2022-08-20T02:37:55.276Z,100377.13
2022-08-20T02:40:30.869Z,100369.54
2022-08-20T02:43:01.637Z,100362.64
2022-08-20T02:45:31.531Z,100358.23
2022-08-20T02:47:59.494Z,100357.52
2022-08-20T02:50:28.554Z,100352.34
2022-08-20T02:52:56.607Z,100346.44
2022-08-20T02:55:27.312Z,100351.09
2022-08-20T02:57:59.333Z,100354.27
2022-08-20T03:00:37.787Z,100347.52
2022-08-20T03:03:11.522Z,100344.62
2022-08-20T03:05:41.727Z,100346.41
2022-08-20T03:08:12.371Z,100343.77
2022-08-20T03:10:42.237Z,100345.42
2022-08-20T03:13:13.482Z,100339.46
2022-08-20T03:15:44.365Z,100326.80
2022-08-20T03:18:13.203Z,100321.69
2022-08-20T03:20:42.138Z,100316.48
2022-08-20T03:23:10.673Z,100315.42
2022-08-20T03:25:38.409Z,100313.52
2022-08-20T03:28:06.760Z,100315.40
2022-08-20T03:30:34.655Z,100318.59
2022-08-20T03:33:02.716Z,100322.90
2022-08-20T03:35:32.351Z,100326.86
2022-08-20T03:38:00.433Z,100327.55
2022-08-20T03:40:31.340Z,100324.70
2022-08-20T03:42:59.688Z,100330.60
2022-08-20T03:45:28.398Z,100332.66
2022-08-20T03:47:56.618Z,100328.02
2022-08-20T03:50:29.051Z,100321.17
2022-08-20T03:52:58.406Z,100316.09
2022-08-20T03:55:28.052Z,100315.34
2022-08-20T03:57:59.168Z,100317.57
2022-08-20T04:00:33.547Z,100312.25
2022-08-20T04:03:01.402Z,100307.92
2022-08-20T04:05:31.305Z,100311.71
2022-08-20T04:08:03.092Z,100304.15
2022-08-20T04:10:32.214Z,100301.80
2022-08-20T04:13:01.649Z,100297.88
2022-08-20T04:15:29.659Z,100299.65
2022-08-20T04:17:59.611Z,100306.04
2022-08-20T04:20:27.683Z,100306.15
2022-08-20T04:22:59.063Z,100308.56
2022-08-20T04:25:29.564Z,100309.44
2022-08-20T04:27:59.153Z,100310.62
2022-08-20T04:30:28.025Z,100311.05
2022-08-20T04:32:56.391Z,100317.27
2022-08-20T04:35:24.716Z,100314.74
2022-08-20T04:38:23.119Z,100319.33
2022-08-20T04:40:54.321Z,100321.89
2022-08-20T04:43:27.667Z,100321.64
2022-08-20T04:45:59.073Z,100321.42
2022-08-20T04:48:28.970Z,100328.14
2022-08-20T04:50:57.773Z,100325.85
2022-08-20T04:53:28.188Z,100332.08
2022-08-20T04:55:58.737Z,100341.41
2022-08-20T04:58:38.527Z,100344.12
2022-08-20T05:01:09.655Z,100348.55
2022-08-20T05:03:39.845Z,100352.78
2022-08-20T05:06:09.876Z,100358.80
2022-08-20T05:08:38.834Z,100355.19
2022-08-20T05:11:33.208Z,100357.75
2022-08-20T05:13:57.417Z,100364.59
2022-08-20T05:16:25.316Z,100368.59
2022-08-20T05:18:53.166Z,100370.30
2022-08-20T05:21:21.298Z,100369.98
2022-08-20T05:23:49.590Z,100370.70
2022-08-20T05:26:20.200Z,100368.88
2022-08-20T05:28:54.328Z,100370.57
2022-08-20T05:31:31.417Z,100371.01
2022-08-20T05:34:10.735Z,100374.08
2022-08-20T05:36:49.365Z,100371.90
2022-08-20T05:39:22.205Z,100373.23
2022-08-20T05:41:51.007Z,100378.56
2022-08-20T05:44:19.561Z,100374.77
2022-08-20T05:46:48.523Z,100374.80
2022-08-20T05:49:20.108Z,100380.56
2022-08-20T05:51:51.034Z,100379.34
2022-08-20T05:54:19.437Z,100385.05
2022-08-20T05:56:47.261Z,100381.85
2022-08-20T05:59:15.008Z,100385.00
2022-08-20T06:01:43.256Z,100386.70
2022-08-20T06:04:32.153Z,100394.05
2022-08-20T06:07:06.102Z,100405.47
2022-08-20T06:09:36.329Z,100412.63
2022-08-20T06:12:06.698Z,100416.85
2022-08-20T06:14:35.448Z,100411.89
2022-08-20T06:17:15.497Z,100412.16
2022-08-20T06:19:45.881Z,100406.10
2022-08-20T06:22:18.717Z,100399.77
2022-08-20T06:24:52.077Z,100402.17
2022-08-20T06:27:20.892Z,100405.89
2022-08-20T06:29:50.978Z,100408.58
2022-08-20T06:32:31.648Z,100407.71
2022-08-20T06:35:06.395Z,100407.53
2022-08-20T06:37:37.515Z,100401.84
2022-08-20T06:40:14.968Z,100397.36
2022-08-20T06:42:48.537Z,100390.48
2022-08-20T06:45:26.126Z,100384.36
2022-08-20T06:47:58.159Z,100383.14
2022-08-20T06:50:32.686Z,100379.73
2022-08-20T06:53:00.830Z,100380.73
2022-08-20T06:55:29.082Z,100385.26
2022-08-20T06:58:05.439Z,100391.86
2022-08-20T07:00:36.440Z,100393.52
2022-08-20T07:03:05.021Z,100393.26
2022-08-20T07:05:37.152Z,100395.61
2022-08-20T07:08:05.570Z,100397.04
2022-08-20T07:10:33.423Z,100403.76
2022-08-20T07:13:01.303Z,100405.36
2022-08-20T07:15:30.336Z,100404.18
2022-08-20T07:18:01.934Z,100403.14
2022-08-20T07:20:33.082Z,100406.46
2022-08-20T07:23:01.607Z,100401.83
2022-08-20T07:25:31.861Z,100399.55
2022-08-20T07:28:02.755Z,100396.79
2022-08-20T07:30:56.768Z,100400.86
2022-08-20T07:33:30.419Z,100406.27
2022-08-20T07:35:59.455Z,100410.61
2022-08-20T07:38:30.217Z,100409.96
2022-08-20T07:41:01.843Z,100407.80
2022-08-20T07:43:32.384Z,100409.23
2022-08-20T07:46:02.246Z,100407.67
2022-08-20T07:48:31.945Z,100405.54
2022-08-20T07:51:05.769Z,100406.23
2022-08-20T07:53:36.231Z,100405.50
2022-08-20T07:56:10.305Z,100397.50
2022-08-20T07:58:43.763Z,100390.09
2022-08-20T08:01:11.862Z,100389.18
2022-08-20T08:03:49.264Z,100385.66
2022-08-20T08:06:30.018Z,100380.58
2022-08-20T08:09:06.921Z,100379.45
2022-08-20T08:11:38.296Z,100377.22
2022-08-20T08:14:09.817Z,100379.11
2022-08-20T08:16:38.605Z,100384.02
2022-08-20T08:19:09.877Z,100384.05
2022-08-20T08:21:37.818Z,100389.35
2022-08-20T08:24:05.838Z,100389.11
2022-08-20T08:26:33.605Z,100388.41
2022-08-20T08:29:02.666Z,100388.44
2022-08-20T08:31:30.451Z,100396.95
2022-08-20T08:33:58.691Z,100398.07
2022-08-20T08:36:27.498Z,100402.38
2022-08-20T08:38:56.734Z,100402.45
2022-08-20T08:41:32.327Z,100403.03
2022-08-20T08:44:21.400Z,100407.48
2022-08-20T08:47:04.089Z,100407.63
2022-08-20T08:49:37.965Z,100409.11
2022-08-20T08:52:14.721Z,100412.99
2022-08-20T08:54:47.511Z,100417.47
2022-08-20T08:57:16.776Z,100425.30
2022-08-20T09:00:04.452Z,100425.13
2022-08-20T09:02:35.378Z,100423.36
2022-08-20T09:05:13.498Z,100423.32
2022-08-20T09:07:45.694Z,100421.36
2022-08-20T09:10:13.742Z,100417.63
2022-08-20T09:12:47.095Z,100421.66
2022-08-20T09:15:16.793Z,100419.36
2022-08-20T09:17:44.566Z,100419.36
2022-08-20T09:20:12.745Z,100415.44
2022-08-20T09:22:41.428Z,100416.81
2022-08-20T09:25:09.639Z,100421.56
2022-08-20T09:27:37.672Z,100422.48
2022-08-20T09:30:10.103Z,100425.61
2022-08-20T09:32:37.915Z,100430.26
2022-08-20T09:35:09.356Z,100432.19
2022-08-20T09:37:38.104Z,100428.20
2022-08-20T09:40:08.762Z,100428.76
2022-08-20T09:42:41.251Z,100428.06
2022-08-20T09:45:11.010Z,100424.90
2022-08-20T09:47:55.385Z,100423.98
2022-08-20T09:50:31.677Z,100424.33
2022-08-20T09:53:01.651Z,100421.14
2022-08-20T09:55:38.916Z,100419.20
2022-08-20T09:58:38.297Z,100416.84
2022-08-20T10:01:15.124Z,100418.11
2022-08-20T10:03:44.579Z,100419.79
2022-08-20T10:06:14.887Z,100418.89
2022-08-20T10:08:43.749Z,100414.25
2022-08-20T10:11:11.512Z,100412.84
2022-08-20T10:13:39.336Z,100409.80
2022-08-20T10:16:07.317Z,100411.52
2022-08-20T10:18:36.601Z,100409.71
2022-08-20T10:21:10.782Z,100407.63
2022-08-20T10:23:38.678Z,100410.37
2022-08-20T10:26:11.354Z,100413.42
2022-08-20T10:28:39.747Z,100411.02
2022-08-20T10:31:09.866Z,100407.98
2022-08-20T10:33:39.480Z,100409.13
2022-08-20T10:36:17.190Z,100404.31
2022-08-20T10:38:45.513Z,100406.88
2022-08-20T10:41:13.254Z,100411.45
2022-08-20T10:43:41.139Z,100407.46
2022-08-20T10:46:09.319Z,100405.39
2022-08-20T10:48:37.540Z,100405.29
2022-08-20T10:51:06.003Z,100405.63
2022-08-20T10:53:34.630Z,100408.86
2022-08-20T10:56:02.538Z,100410.41
2022-08-20T10:58:39.233Z,100409.42
2022-08-20T11:01:08.169Z,100410.06
2022-08-20T11:03:36.236Z,100412.76
2022-08-20T11:06:04.590Z,100414.47
2022-08-20T11:08:34.309Z,100414.45
2022-08-20T11:11:05.910Z,100417.36
2022-08-20T11:13:34.905Z,100414.45
2022-08-20T11:16:04.076Z,100417.17
2022-08-20T11:18:33.068Z,100413.55
2022-08-20T11:21:01.560Z,100414.67
2022-08-20T11:23:30.615Z,100420.14
2022-08-20T11:25:58.680Z,100415.10
2022-08-20T11:28:31.780Z,100415.75
2022-08-20T11:31:01.830Z,100417.64
2022-08-20T11:33:29.825Z,100413.39
2022-08-20T11:35:57.712Z,100414.27
2022-08-20T11:38:26.261Z,100412.20
2022-08-20T11:40:54.128Z,100411.64
2022-08-20T11:43:21.989Z,100414.35
2022-08-20T11:45:54.543Z,100413.96
2022-08-20T11:48:22.701Z,100416.84
2022-08-20T11:50:50.645Z,100413.02
2022-08-20T11:53:18.746Z,100415.09
2022-08-20T11:55:47.909Z,100412.45
2022-08-20T11:58:16.068Z,100412.36
2022-08-20T12:00:44.202Z,100406.55
2022-08-20T12:03:12.319Z,100409.92
2022-08-20T12:05:43.315Z,100404.38
2022-08-20T12:08:25.327Z,100406.53
2022-08-20T12:10:58.411Z,100403.73
2022-08-20T12:13:43.940Z,100404.71
2022-08-20T12:16:19.497Z,100405.35
2022-08-20T12:18:48.424Z,100400.84
2022-08-20T12:21:16.938Z,100393.71
2022-08-20T12:23:45.256Z,100388.04
2022-08-20T12:26:14.164Z,100380.10
2022-08-20T12:28:42.361Z,100369.95
2022-08-20T12:31:10.212Z,100367.45
2022-08-20T12:33:38.116Z,100362.73
2022-08-20T12:36:06.225Z,100356.03
2022-08-20T12:38:34.108Z,100362.27
2022-08-20T12:41:02.676Z,100367.02
2022-08-20T12:43:30.406Z,100366.09
2022-08-20T12:45:58.190Z,100365.35
2022-08-20T12:48:26.175Z,100359.11
2022-08-20T12:50:54.072Z,100358.28
2022-08-20T12:53:22.085Z,100357.12
2022-08-20T12:55:50.034Z,100352.48
2022-08-20T12:58:17.898Z,100348.47
2022-08-20T13:00:50.813Z,100349.71
2022-08-20T13:03:20.940Z,100350.41
2022-08-20T13:05:49.863Z,100345.98
2022-08-20T13:08:19.581Z,100346.55
2022-08-20T13:10:47.971Z,100347.43
2022-08-20T13:13:20.507Z,100344.82
2022-08-20T13:15:50.998Z,100340.78
2022-08-20T13:18:19.866Z,100340.52
2022-08-20T13:20:48.296Z,100344.29
2022-08-20T13:23:16.922Z,100342.65
2022-08-20T13:25:44.668Z,100340.53
2022-08-20T13:28:12.483Z,100336.31
2022-08-20T13:30:41.527Z,100338.60
2022-08-20T13:33:09.601Z,100335.69
2022-08-20T13:35:37.840Z,100337.53
2022-08-20T13:38:06.013Z,100336.02
2022-08-20T13:40:33.973Z,100336.91
2022-08-20T13:43:06.461Z,100339.20
2022-08-20T13:45:37.321Z,100339.88
2022-08-20T13:48:09.905Z,100340.27
2022-08-20T13:50:47.172Z,100342.02
2022-08-20T13:53:16.574Z,100337.09
2022-08-20T13:55:44.965Z,100329.73
2022-08-20T13:58:13.260Z,100329.73
2022-08-20T14:00:41.858Z,100326.16
2022-08-20T14:03:09.894Z,100327.36
2022-08-20T14:05:38.804Z,100321.56
2022-08-20T14:08:09.959Z,100318.73
2022-08-20T14:10:38.747Z,100317.58
2022-08-20T14:13:07.067Z,100318.04
2022-08-20T14:15:36.269Z,100314.64
2022-08-20T14:18:04.606Z,100316.90
2022-08-20T14:20:34.685Z,100320.38
2022-08-20T14:23:06.931Z,100320.08
2022-08-20T14:25:35.234Z,100320.18
2022-08-20T14:28:11.878Z,100314.89
2022-08-20T14:30:40.073Z,100319.35
2022-08-20T14:33:08.977Z,100317.08
2022-08-20T14:35:37.040Z,100324.45
2022-08-20T14:38:05.459Z,100323.75
2022-08-20T14:40:34.387Z,100323.63
2022-08-20T14:43:03.319Z,100324.23
2022-08-20T14:45:31.079Z,100322.54
2022-08-20T14:47:59.804Z,100318.73
2022-08-20T14:50:33.975Z,100317.39
2022-08-20T14:53:02.669Z,100311.77
2022-08-20T14:55:33.554Z,100309.62
2022-08-20T14:58:01.851Z,100310.80
2022-08-20T15:00:31.085Z,100307.88
2022-08-20T15:02:58.999Z,100308.42
2022-08-20T15:05:27.568Z,100309.05
2022-08-20T15:07:59.381Z,100314.00
2022-08-20T15:10:31.251Z,100321.10
2022-08-20T15:12:59.718Z,100321.86
2022-08-20T15:15:28.059Z,100318.99
2022-08-20T15:18:00.361Z,100321.52
2022-08-20T15:20:31.469Z,100322.54
2022-08-20T15:23:00.955Z,100320.37
2022-08-20T15:25:36.062Z,100310.55
2022-08-20T15:28:08.814Z,100311.61
2022-08-20T15:30:40.470Z,100319.09
2022-08-20T15:33:10.274Z,100318.64
2022-08-20T15:35:38.420Z,100318.29
2022-08-20T15:38:06.229Z,100322.69
2022-08-20T15:40:34.499Z,100321.86
2022-08-20T15:43:04.936Z,100324.34
2022-08-20T15:45:34.423Z,100330.56
2022-08-20T15:48:21.495Z,100346.14
2022-08-20T15:51:03.689Z,100359.00
2022-08-20T15:53:58.306Z,100384.18
2022-08-20T15:56:36.427Z,100421.95
2022-08-20T15:59:19.104Z,100434.63
2022-08-20T16:02:05.391Z,100420.94
2022-08-20T16:04:52.125Z,100431.94
2022-08-20T16:07:28.839Z,100433.42
2022-08-20T16:10:15.876Z,100415.13
2022-08-20T16:12:49.937Z,100384.36
2022-08-20T16:15:28.844Z,100383.84
2022-08-20T16:18:21.210Z,100399.47
2022-08-20T16:20:52.869Z,100416.33
2022-08-20T16:23:31.425Z,100425.98
2022-08-20T16:26:26.546Z,100430.60
2022-08-20T16:29:10.013Z,100433.89
2022-08-20T16:32:01.561Z,100445.84
2022-08-20T16:34:41.645Z,100459.90
2022-08-20T16:37:25.465Z,100484.71
2022-08-20T16:40:21.721Z,100501.67
2022-08-20T16:42:51.877Z,100514.80
2022-08-20T16:45:26.825Z,100521.52
2022-08-20T16:48:01.090Z,100525.88
2022-08-20T16:50:39.367Z,100524.52
2022-08-20T16:53:17.906Z,100504.79
2022-08-20T16:55:46.104Z,100488.38
2022-08-20T16:58:14.423Z,100473.43
2022-08-20T17:00:45.213Z,100474.85
2022-08-20T17:03:33.576Z,100479.71
2022-08-20T17:06:19.507Z,100482.34
2022-08-20T17:08:50.458Z,100477.64
2022-08-20T17:11:32.665Z,100476.08
2022-08-20T17:14:17.453Z,100487.50
2022-08-20T17:16:48.967Z,100496.98
2022-08-20T17:19:28.756Z,100503.78
2022-08-20T17:22:09.083Z,100500.86
2022-08-20T17:24:38.642Z,100491.09
2022-08-20T17:27:13.421Z,100489.98
2022-08-20T17:29:54.093Z,100491.95
2022-08-20T17:32:28.015Z,100488.58
2022-08-20T17:34:58.876Z,100493.98
2022-08-20T17:37:33.795Z,100489.25
2022-08-20T17:40:30.293Z,100486.42
2022-08-20T17:43:06.056Z,100480.74
2022-08-20T17:45:44.803Z,100486.63
2022-08-20T17:48:20.213Z,100488.42
2022-08-20T17:50:50.083Z,100491.10
2022-08-20T17:53:23.442Z,100493.98
2022-08-20T17:56:02.781Z,100492.61
2022-08-20T17:58:54.593Z,100496.56
2022-08-20T18:01:26.000Z,100501.71
2022-08-20T18:03:54.616Z,100509.54
2022-08-20T18:06:48.516Z,100515.23
2022-08-20T18:09:38.361Z,100520.42
2022-08-20T18:12:34.671Z,100528.17
2022-08-20T18:15:24.659Z,100525.41
2022-08-20T18:18:24.695Z,100527.27
2022-08-20T18:21:11.275Z,100530.48
2022-08-20T18:23:47.999Z,100532.14
2022-08-20T18:26:31.856Z,100535.44
2022-08-20T18:29:09.740Z,100538.36
2022-08-20T18:31:49.650Z,100537.29
2022-08-20T18:34:34.061Z,100537.36
2022-08-20T18:37:21.409Z,100542.02
2022-08-20T18:39:51.479Z,100538.17
2022-08-20T18:42:27.457Z,100537.48
2022-08-20T18:44:57.066Z,100533.46
2022-08-20T18:47:28.054Z,100538.83
2022-08-20T18:50:05.464Z,100538.61
2022-08-20T18:52:39.458Z,100538.44
2022-08-20T18:55:15.826Z,100531.65
2022-08-20T18:57:58.023Z,100523.54
2022-08-20T19:00:52.319Z,100512.78
2022-08-20T19:03:23.808Z,100517.37
2022-08-20T19:06:02.910Z,100518.98
2022-08-20T19:08:43.220Z,100519.02
2022-08-20T19:11:15.394Z,100525.58
2022-08-20T19:14:11.232Z,100529.14
2022-08-20T19:17:11.764Z,100530.00
2022-08-20T19:19:39.602Z,100528.85
2022-08-20T19:22:07.978Z,100523.19
2022-08-20T19:24:39.611Z,100522.01
2022-08-20T19:27:12.072Z,100520.93
2022-08-20T19:29:42.883Z,100524.79
2022-08-20T19:32:21.806Z,100525.69
2022-08-20T19:35:02.078Z,100526.23
2022-08-20T19:37:44.334Z,100528.02
2022-08-20T19:40:24.872Z,100529.27
2022-08-20T19:42:59.693Z,100526.61
2022-08-20T19:45:40.017Z,100523.12
2022-08-20T19:49:05.637Z,100521.17
2022-08-20T19:51:53.875Z,100520.06
2022-08-20T19:54:25.037Z,100514.95
2022-08-20T19:57:04.554Z,100510.55
2022-08-20T19:59:32.613Z,100505.23
2022-08-20T20:02:04.085Z,100505.63
2022-08-20T20:04:54.882Z,100511.27
2022-08-20T20:07:28.261Z,100518.50
2022-08-20T20:09:58.430Z,100517.54
2022-08-20T20:12:26.301Z,100515.99
2022-08-20T20:14:55.287Z,100514.08
2022-08-20T20:17:29.984Z,100512.80
2022-08-20T20:20:19.016Z,100513.49
2022-08-20T20:22:57.564Z,100505.92
2022-08-20T20:25:33.910Z,100501.86
2022-08-20T20:28:17.766Z,100500.79
2022-08-20T20:30:46.095Z,100496.89
2022-08-20T20:33:22.356Z,100494.19
2022-08-20T20:36:09.424Z,100489.39
2022-08-20T20:38:41.161Z,100484.83
2022-08-20T20:41:21.271Z,100484.30
2022-08-20T20:43:59.743Z,100484.20
2022-08-20T20:46:29.189Z,100480.69
2022-08-20T20:49:09.525Z,100481.77
2022-08-20T20:51:41.356Z,100480.17
2022-08-20T20:54:27.058Z,100481.27
2022-08-20T20:57:02.806Z,100480.77
2022-08-20T20:59:32.720Z,100484.95
2022-08-20T21:02:01.105Z,100482.19
2022-08-20T21:04:29.186Z,100480.42
2022-08-20T21:06:59.237Z,100481.49
2022-08-20T21:09:27.013Z,100483.97
2022-08-20T21:11:54.861Z,100484.36
2022-08-20T21:14:22.816Z,100490.04
2022-08-20T21:16:50.698Z,100490.20
2022-08-20T21:19:18.750Z,100485.96
2022-08-20T21:21:46.590Z,100488.77
2022-08-20T21:24:14.477Z,100492.11
2022-08-20T21:26:42.726Z,100489.11
2022-08-20T21:29:13.660Z,100487.88
2022-08-20T21:31:44.787Z,100486.30
2022-08-20T21:34:15.736Z,100484.37
2022-08-20T21:36:44.182Z,100482.42
2022-08-20T21:39:12.552Z,100484.53
2022-08-20T21:41:42.733Z,100487.21
2022-08-20T21:44:29.711Z,100487.05
2022-08-20T21:46:58.951Z,100482.95
2022-08-20T21:49:29.192Z,100486.19
2022-08-20T21:51:58.275Z,100483.30
2022-08-20T21:54:26.820Z,100488.10
2022-08-20T21:57:13.117Z,100487.80
2022-08-20T21:59:42.231Z,100484.80
2022-08-20T22:02:10.210Z,100486.20
2022-08-20T22:04:38.276Z,100492.76
2022-08-20T22:07:06.423Z,100498.23
2022-08-20T22:09:36.259Z,100502.50
2022-08-20T22:12:07.187Z,100503.19
2022-08-20T22:14:34.986Z,100501.05
2022-08-20T22:17:02.880Z,100505.09
2022-08-20T22:19:30.750Z,100503.52
2022-08-20T22:21:58.700Z,100501.42
2022-08-20T22:24:29.210Z,100504.98
2022-08-20T22:26:57.630Z,100506.37
2022-08-20T22:29:25.685Z,100508.86
2022-08-20T22:31:53.946Z,100510.08
2022-08-20T22:34:22.375Z,100506.55
2022-08-20T22:36:54.374Z,100495.63
2022-08-20T22:39:22.395Z,100496.48
2022-08-20T22:41:50.623Z,100497.75
2022-08-20T22:44:18.689Z,100502.14
2022-08-20T22:46:50.508Z,100508.04
2022-08-20T22:49:24.052Z,100511.02
2022-08-20T22:51:52.754Z,100512.65
2022-08-20T22:54:23.264Z,100509.45
2022-08-20T22:56:52.993Z,100501.13
2022-08-20T22:59:22.785Z,100498.28
2022-08-20T23:01:52.298Z,100502.71
2022-08-20T23:04:26.555Z,100507.81
2022-08-20T23:06:55.406Z,100504.98
2022-08-20T23:09:23.782Z,100508.55
2022-08-20T23:11:53.139Z,100516.82
2022-08-20T23:14:21.586Z,100515.77
2022-08-20T23:16:58.786Z,100520.23
2022-08-20T23:19:27.481Z,100521.85
2022-08-20T23:21:55.484Z,100517.83
2022-08-20T23:24:23.509Z,100515.36
2022-08-20T23:26:53.073Z,100520.17
2022-08-20T23:29:25.885Z,100516.52
2022-08-20T23:31:57.874Z,100511.26
2022-08-20T23:34:27.190Z,100509.35
2022-08-20T23:36:57.356Z,100517.48
2022-08-20T23:39:26.284Z,100520.51
2022-08-20T23:41:55.343Z,100520.52
2022-08-20T23:44:25.103Z,100518.77
2022-08-20T23:46:58.542Z,100521.27
2022-08-20T23:49:27.994Z,100520.39
2022-08-20T23:51:56.051Z,100520.75
2022-08-20T23:54:23.948Z,100519.17
2022-08-20T23:56:51.835Z,100522.34
2022-08-20T23:59:25.844Z,100513.35
